createdAt,value
2023-01-17T00:01:51.980Z,4.81
2023-01-17T00:04:39.909Z,4.76
2023-01-17T00:07:25.230Z,4.81
2023-01-17T00:09:56.762Z,4.91
2023-01-17T00:12:25.999Z,5.00
2023-01-17T00:14:54.849Z,4.99
2023-01-17T00:17:26.021Z,4.96
2023-01-17T00:20:11.375Z,4.88
2023-01-17T00:22:57.102Z,4.75
2023-01-17T00:25:47.511Z,4.80
2023-01-17T00:28:14.924Z,4.76
2023-01-17T00:30:41.846Z,4.72
2023-01-17T00:33:08.632Z,4.62
2023-01-17T00:35:35.283Z,4.54
2023-01-17T00:38:07.941Z,4.66
2023-01-17T00:40:36.833Z,4.65
2023-01-17T00:43:23.683Z,4.54
2023-01-17T00:46:09.487Z,4.51
2023-01-17T00:48:56.396Z,4.45
2023-01-17T00:51:43.284Z,4.45
2023-01-17T00:54:29.228Z,4.46
2023-01-17T00:57:14.679Z,4.50
2023-01-17T01:00:00.043Z,4.48
2023-01-17T01:02:46.296Z,4.53
2023-01-17T01:05:33.018Z,4.50
2023-01-17T01:08:18.850Z,4.49
2023-01-17T01:11:05.656Z,4.57
2023-01-17T01:13:52.518Z,4.65
2023-01-17T01:16:38.041Z,4.59
2023-01-17T01:19:24.543Z,4.55
2023-01-17T01:22:09.916Z,4.55
2023-01-17T01:24:55.360Z,4.58
2023-01-17T01:27:41.150Z,4.60
2023-01-17T01:30:27.052Z,4.64
2023-01-17T01:33:12.602Z,4.65
2023-01-17T01:35:39.515Z,4.65
2023-01-17T01:38:06.513Z,4.76
2023-01-17T01:40:33.428Z,4.74
2023-01-17T01:43:03.175Z,4.89
2023-01-17T01:45:32.393Z,4.87
2023-01-17T01:48:13.809Z,4.98
2023-01-17T01:50:40.825Z,4.99
2023-01-17T01:53:08.227Z,5.02
2023-01-17T01:55:40.616Z,5.09
2023-01-17T01:58:15.482Z,5.05
2023-01-17T02:00:42.497Z,5.04
2023-01-17T02:03:15.365Z,5.14
2023-01-17T02:05:43.791Z,5.15
2023-01-17T02:08:14.589Z,5.21
2023-01-17T02:10:42.618Z,5.27
2023-01-17T02:13:10.309Z,5.26
2023-01-17T02:15:50.205Z,5.18
2023-01-17T02:18:24.261Z,5.07
2023-01-17T02:21:29.317Z,4.95
2023-01-17T02:24:17.251Z,5.03
2023-01-17T02:26:55.743Z,4.98
2023-01-17T02:29:22.438Z,5.12
2023-01-17T02:31:58.166Z,5.14
2023-01-17T02:34:32.834Z,5.03
2023-01-17T02:37:26.046Z,5.03
2023-01-17T02:40:05.054Z,5.19
2023-01-17T02:42:46.889Z,5.20
2023-01-17T02:45:19.696Z,5.32
2023-01-17T02:47:46.949Z,5.41
2023-01-17T02:50:23.830Z,5.31
2023-01-17T02:53:32.831Z,5.41
2023-01-17T02:56:18.108Z,5.29
2023-01-17T02:59:06.053Z,5.13
2023-01-17T03:01:33.994Z,4.98
2023-01-17T03:04:04.061Z,4.91
2023-01-17T03:06:30.886Z,4.93
2023-01-17T03:08:57.592Z,4.91
2023-01-17T03:11:24.867Z,4.83
2023-01-17T03:13:58.461Z,4.89
2023-01-17T03:16:28.613Z,5.03
2023-01-17T03:18:55.467Z,5.10
2023-01-17T03:21:23.606Z,5.07
2023-01-17T03:23:50.617Z,5.07
2023-01-17T03:26:17.480Z,5.11
2023-01-17T03:28:44.593Z,5.15
2023-01-17T03:31:15.934Z,5.19
2023-01-17T03:33:42.808Z,5.21
2023-01-17T03:36:09.810Z,5.25
2023-01-17T03:38:37.577Z,5.37
2023-01-17T03:41:05.397Z,5.47
2023-01-17T03:43:32.199Z,5.43
2023-01-17T03:46:07.033Z,5.51
2023-01-17T03:48:34.431Z,5.51
2023-01-17T03:51:01.296Z,5.59
2023-01-17T03:53:28.164Z,5.56
2023-01-17T03:55:54.956Z,5.52
2023-01-17T03:58:22.855Z,5.55
2023-01-17T04:00:49.858Z,5.38
2023-01-17T04:03:16.921Z,5.28
2023-01-17T04:05:43.900Z,5.26
2023-01-17T04:08:11.244Z,5.19
2023-01-17T04:10:38.067Z,5.27
2023-01-17T04:13:05.905Z,5.24
2023-01-17T04:15:33.520Z,5.28
2023-01-17T04:18:01.132Z,5.28
2023-01-17T04:20:35.126Z,5.29
2023-01-17T04:23:02.551Z,5.22
2023-01-17T04:25:31.034Z,5.17
2023-01-17T04:27:59.813Z,5.25
2023-01-17T04:30:28.349Z,5.36
2023-01-17T04:32:55.921Z,5.31
2023-01-17T04:35:24.903Z,5.22
2023-01-17T04:37:52.599Z,5.28
2023-01-17T04:40:19.574Z,5.28
2023-01-17T04:42:49.140Z,5.14
2023-01-17T04:45:16.218Z,5.25
2023-01-17T04:47:43.341Z,5.18
2023-01-17T04:50:13.070Z,5.17
2023-01-17T04:52:40.205Z,5.23
2023-01-17T04:55:07.663Z,5.23
2023-01-17T04:57:35.026Z,5.34
2023-01-17T05:00:01.892Z,5.45
2023-01-17T05:02:29.020Z,5.53
2023-01-17T05:04:56.568Z,5.57
2023-01-17T05:07:23.716Z,5.50
2023-01-17T05:09:50.520Z,5.58
2023-01-17T05:12:18.617Z,5.62
2023-01-17T05:14:45.457Z,5.65
2023-01-17T05:17:12.689Z,5.66
2023-01-17T05:19:39.719Z,5.72
2023-01-17T05:22:15.240Z,5.81
2023-01-17T05:24:48.316Z,5.73
2023-01-17T05:27:17.932Z,5.74
2023-01-17T05:29:44.731Z,5.81
2023-01-17T05:32:12.217Z,5.78
2023-01-17T05:34:39.032Z,5.76
2023-01-17T05:37:06.671Z,5.65
2023-01-17T05:39:33.387Z,5.63
2023-01-17T05:42:00.237Z,5.51
2023-01-17T05:44:27.874Z,5.53
2023-01-17T05:46:55.439Z,5.56
2023-01-17T05:49:22.383Z,5.61
2023-01-17T05:51:49.335Z,5.42
2023-01-17T05:54:18.700Z,5.46
2023-01-17T05:56:45.541Z,5.47
2023-01-17T05:59:14.184Z,5.52
2023-01-17T06:01:41.328Z,5.55
2023-01-17T06:04:08.358Z,5.47
2023-01-17T06:06:35.207Z,5.53
2023-01-17T06:09:02.061Z,5.65
2023-01-17T06:11:28.869Z,5.68
2023-01-17T06:13:55.715Z,5.67
2023-01-17T06:16:22.625Z,5.66
2023-01-17T06:18:49.542Z,5.77
2023-01-17T06:21:16.428Z,5.85
2023-01-17T06:23:43.275Z,5.66
2023-01-17T06:26:10.628Z,5.62
2023-01-17T06:28:37.604Z,5.60
2023-01-17T06:31:08.953Z,5.64
2023-01-17T06:33:36.194Z,5.56
2023-01-17T06:36:03.401Z,5.46
2023-01-17T06:38:30.322Z,5.39
2023-01-17T06:41:00.424Z,5.45
2023-01-17T06:43:32.645Z,5.48
2023-01-17T06:46:00.844Z,5.62
2023-01-17T06:48:28.092Z,5.72
2023-01-17T06:50:54.932Z,5.81
2023-01-17T06:53:21.848Z,5.78
2023-01-17T06:55:48.818Z,5.79
2023-01-17T06:58:15.647Z,5.69
2023-01-17T07:00:42.494Z,5.70
2023-01-17T07:03:21.225Z,5.76
2023-01-17T07:05:48.749Z,5.76
2023-01-17T07:08:17.149Z,5.78
2023-01-17T07:10:45.088Z,5.87
2023-01-17T07:13:14.613Z,5.79
2023-01-17T07:15:41.577Z,5.96
2023-01-17T07:18:08.461Z,6.12
2023-01-17T07:20:35.494Z,6.16
2023-01-17T07:23:02.504Z,6.24
2023-01-17T07:25:31.677Z,6.31
2023-01-17T07:28:00.921Z,6.43
2023-01-17T07:30:27.989Z,6.40
2023-01-17T07:32:56.955Z,6.05
2023-01-17T07:35:26.808Z,6.11
2023-01-17T07:37:55.038Z,6.26
2023-01-17T07:40:22.832Z,6.34
2023-01-17T07:42:50.019Z,6.31
2023-01-17T07:45:17.737Z,6.38
2023-01-17T07:47:44.890Z,6.46
2023-01-17T07:50:13.697Z,6.42
2023-01-17T07:52:41.174Z,6.58
2023-01-17T07:55:08.973Z,6.66
2023-01-17T07:57:36.060Z,6.67
2023-01-17T08:00:04.475Z,6.69
2023-01-17T08:02:39.036Z,6.73
2023-01-17T08:05:06.079Z,6.73
2023-01-17T08:07:32.907Z,6.73
2023-01-17T08:10:01.300Z,6.85
2023-01-17T08:12:29.524Z,6.73
2023-01-17T08:14:56.522Z,6.67
2023-01-17T08:17:23.389Z,6.89
2023-01-17T08:19:52.206Z,7.11
2023-01-17T08:22:19.125Z,7.23
2023-01-17T08:24:46.061Z,7.33
2023-01-17T08:27:12.893Z,7.29
2023-01-17T08:29:42.886Z,7.29
2023-01-17T08:32:09.768Z,7.39
2023-01-17T08:34:36.674Z,7.51
2023-01-17T08:37:03.571Z,7.59
2023-01-17T08:39:30.388Z,7.71
2023-01-17T08:41:58.235Z,7.71
2023-01-17T08:44:25.138Z,7.95
2023-01-17T08:46:52.411Z,8.06
2023-01-17T08:49:22.604Z,8.00
2023-01-17T08:51:49.715Z,8.16
2023-01-17T08:54:19.532Z,8.27
2023-01-17T08:56:47.992Z,8.31
2023-01-17T08:59:15.264Z,8.39
2023-01-17T09:01:45.909Z,8.37
2023-01-17T09:04:14.356Z,8.62
2023-01-17T09:06:45.468Z,8.82
2023-01-17T09:09:13.789Z,9.00
2023-01-17T09:11:43.927Z,9.17
2023-01-17T09:14:14.337Z,9.30
2023-01-17T09:16:41.326Z,9.51
2023-01-17T09:19:09.452Z,9.62
2023-01-17T09:21:36.270Z,9.80
2023-01-17T09:24:03.167Z,9.86
2023-01-17T09:26:30.695Z,9.94
2023-01-17T09:28:58.799Z,10.12
2023-01-17T09:31:27.290Z,10.20
2023-01-17T09:33:55.878Z,10.37
2023-01-17T09:36:23.969Z,10.46
2023-01-17T09:38:56.894Z,10.69
2023-01-17T09:41:30.665Z,10.83
2023-01-17T09:44:22.551Z,10.87
2023-01-17T09:46:54.261Z,10.99
2023-01-17T09:49:47.904Z,11.09
2023-01-17T09:52:21.536Z,11.24
2023-01-17T09:54:50.982Z,11.12
2023-01-17T09:57:38.371Z,11.11
2023-01-17T10:00:13.839Z,11.15
2023-01-17T10:03:06.317Z,11.27
2023-01-17T10:05:54.800Z,11.26
2023-01-17T10:08:43.764Z,11.37
2023-01-17T10:11:29.603Z,11.45
2023-01-17T10:14:21.240Z,11.55
2023-01-17T10:17:16.497Z,11.45
2023-01-17T10:19:58.611Z,11.36
2023-01-17T10:23:06.110Z,11.29
2023-01-17T10:25:47.224Z,11.28
2023-01-17T10:28:25.339Z,11.28
2023-01-17T10:30:56.428Z,11.33
2023-01-17T10:33:29.094Z,11.15
2023-01-17T10:36:10.801Z,11.10
2023-01-17T10:38:41.130Z,11.29
2023-01-17T10:41:15.835Z,11.42
2023-01-17T10:44:03.875Z,11.40
2023-01-17T10:46:46.486Z,11.30
2023-01-17T10:49:20.281Z,11.35
2023-01-17T10:52:08.632Z,11.42
2023-01-17T10:54:51.480Z,11.35
2023-01-17T10:57:22.914Z,11.47
2023-01-17T10:59:50.631Z,11.52
2023-01-17T11:02:25.225Z,11.21
2023-01-17T11:04:54.681Z,11.34
2023-01-17T11:07:27.385Z,11.26
2023-01-17T11:09:56.859Z,11.34
2023-01-17T11:12:30.334Z,11.45
2023-01-17T11:15:05.658Z,11.59
2023-01-17T11:17:37.619Z,11.76
2023-01-17T11:20:12.237Z,11.77
2023-01-17T11:22:40.424Z,11.69
2023-01-17T11:25:07.662Z,11.82
2023-01-17T11:27:37.702Z,11.89
2023-01-17T11:30:19.512Z,11.99
2023-01-17T11:33:00.204Z,12.03
2023-01-17T11:35:33.004Z,12.18
2023-01-17T11:38:05.257Z,12.31
2023-01-17T11:40:41.226Z,11.90
2023-01-17T11:43:27.742Z,11.70
2023-01-17T11:46:17.480Z,11.81
2023-01-17T11:48:51.428Z,11.79
2023-01-17T11:51:43.491Z,11.57
2023-01-17T11:54:31.971Z,11.60
2023-01-17T11:57:02.687Z,11.47
2023-01-17T11:59:35.290Z,11.28
2023-01-17T12:02:38.199Z,11.32
2023-01-17T12:05:55.215Z,11.22
2023-01-17T12:08:28.636Z,11.19
2023-01-17T12:11:17.169Z,11.23
2023-01-17T12:14:15.152Z,11.27
2023-01-17T12:16:54.214Z,11.17
2023-01-17T12:19:45.909Z,11.17
2023-01-17T12:22:34.103Z,11.10
2023-01-17T12:25:15.371Z,11.10
2023-01-17T12:28:00.477Z,11.02
2023-01-17T12:30:51.816Z,11.01
2023-01-17T12:33:33.882Z,11.08
2023-01-17T12:36:17.786Z,11.06
2023-01-17T12:38:48.131Z,11.24
2023-01-17T12:41:26.897Z,11.26
2023-01-17T12:43:59.008Z,11.34
2023-01-17T12:46:38.897Z,11.35
2023-01-17T12:49:38.711Z,11.36
2023-01-17T12:52:29.418Z,11.30
2023-01-17T12:55:03.157Z,11.34
2023-01-17T12:57:38.582Z,11.21
2023-01-17T13:00:08.312Z,11.09
2023-01-17T13:02:47.429Z,11.08
2023-01-17T13:05:26.160Z,11.28
2023-01-17T13:08:03.420Z,11.27
2023-01-17T13:10:39.762Z,11.17
2023-01-17T13:13:37.293Z,11.16
2023-01-17T13:16:15.397Z,11.22
2023-01-17T13:18:46.740Z,11.33
2023-01-17T13:21:30.525Z,11.37
2023-01-17T13:24:20.613Z,11.27
2023-01-17T13:27:07.072Z,11.22
2023-01-17T13:30:15.607Z,11.23
2023-01-17T13:33:01.676Z,11.14
2023-01-17T13:35:46.598Z,11.20
2023-01-17T13:38:22.295Z,11.07
2023-01-17T13:41:07.603Z,11.03
2023-01-17T13:44:03.185Z,11.02
2023-01-17T13:46:32.063Z,11.04
2023-01-17T13:49:34.170Z,10.97
2023-01-17T13:52:11.146Z,10.99
2023-01-17T13:54:55.558Z,11.01
2023-01-17T13:57:33.028Z,11.04
2023-01-17T14:00:40.488Z,11.10
2023-01-17T14:03:12.117Z,11.08
2023-01-17T14:05:39.184Z,11.08
2023-01-17T14:08:18.572Z,11.04
2023-01-17T14:10:50.804Z,11.11
2023-01-17T14:13:37.371Z,10.93
2023-01-17T14:16:31.520Z,10.90
2023-01-17T14:18:59.026Z,10.92
2023-01-17T14:21:29.122Z,10.98
2023-01-17T14:24:15.224Z,10.92
2023-01-17T14:27:10.298Z,10.92
2023-01-17T14:29:49.485Z,10.87
2023-01-17T14:32:22.163Z,10.34
2023-01-17T14:34:51.399Z,10.46
2023-01-17T14:37:49.281Z,10.39
2023-01-17T14:40:18.492Z,10.50
2023-01-17T14:42:47.578Z,10.59
2023-01-17T14:45:22.138Z,10.69
2023-01-17T14:47:52.178Z,10.75
2023-01-17T14:50:35.167Z,10.79
2023-01-17T14:53:08.724Z,10.80
2023-01-17T14:55:36.040Z,10.80
2023-01-17T14:58:02.938Z,10.87
2023-01-17T15:00:31.078Z,10.86
2023-01-17T15:02:59.518Z,10.79
2023-01-17T15:05:29.014Z,10.83
2023-01-17T15:07:58.328Z,10.85
2023-01-17T15:10:31.780Z,10.78
2023-01-17T15:13:07.840Z,10.80
2023-01-17T15:15:38.577Z,10.88
2023-01-17T15:18:14.604Z,10.95
2023-01-17T15:20:49.308Z,10.98
2023-01-17T15:23:20.535Z,10.99
2023-01-17T15:25:49.859Z,11.01
2023-01-17T15:28:18.068Z,10.90
2023-01-17T15:31:09.217Z,10.92
2023-01-17T15:33:39.305Z,10.89
2023-01-17T15:36:34.756Z,10.84
2023-01-17T15:39:07.377Z,10.81
2023-01-17T15:41:36.200Z,10.79
2023-01-17T15:44:04.981Z,10.81
2023-01-17T15:46:41.160Z,10.86
2023-01-17T15:49:20.365Z,10.91
2023-01-17T15:52:08.938Z,11.00
2023-01-17T15:54:40.739Z,11.07
2023-01-17T15:57:22.685Z,11.05
2023-01-17T16:00:14.905Z,11.06
2023-01-17T16:02:44.463Z,11.00
2023-01-17T16:05:33.314Z,10.88
2023-01-17T16:08:03.420Z,10.98
2023-01-17T16:10:39.138Z,11.01
2023-01-17T16:13:08.408Z,10.98
2023-01-17T16:15:36.905Z,10.98
2023-01-17T16:18:09.630Z,10.97
2023-01-17T16:20:46.676Z,10.99
2023-01-17T16:23:17.274Z,10.79
2023-01-17T16:25:44.732Z,10.85
2023-01-17T16:28:12.063Z,10.86
2023-01-17T16:30:41.367Z,10.92
2023-01-17T16:33:11.523Z,10.92
2023-01-17T16:35:39.555Z,10.94
2023-01-17T16:38:15.773Z,10.73
2023-01-17T16:40:44.696Z,10.69
2023-01-17T16:43:13.660Z,10.74
2023-01-17T16:45:52.891Z,10.63
2023-01-17T16:48:20.744Z,10.53
2023-01-17T16:50:53.129Z,10.46
2023-01-17T16:53:24.670Z,10.57
2023-01-17T16:55:55.553Z,10.65
2023-01-17T16:58:22.474Z,10.75
2023-01-17T17:00:50.456Z,10.75
2023-01-17T17:03:19.529Z,10.78
2023-01-17T17:05:55.336Z,10.68
2023-01-17T17:08:22.476Z,10.71
2023-01-17T17:10:51.819Z,10.77
2023-01-17T17:13:18.755Z,10.75
2023-01-17T17:15:45.950Z,10.72
2023-01-17T17:18:17.500Z,10.84
2023-01-17T17:20:45.541Z,10.93
2023-01-17T17:23:12.506Z,10.92
2023-01-17T17:25:41.511Z,10.96
2023-01-17T17:28:10.892Z,10.98
2023-01-17T17:30:37.849Z,11.02
2023-01-17T17:33:04.761Z,11.01
2023-01-17T17:35:34.524Z,10.89
2023-01-17T17:38:01.376Z,10.76
2023-01-17T17:40:31.035Z,10.52
2023-01-17T17:42:57.827Z,10.66
2023-01-17T17:45:24.771Z,10.81
2023-01-17T17:47:51.779Z,11.07
2023-01-17T17:50:18.919Z,11.19
2023-01-17T17:52:45.759Z,11.11
2023-01-17T17:55:13.278Z,11.21
2023-01-17T17:57:40.199Z,11.18
2023-01-17T18:00:07.804Z,11.15
2023-01-17T18:02:34.728Z,11.15
2023-01-17T18:05:02.479Z,11.12
2023-01-17T18:07:32.769Z,11.13
2023-01-17T18:10:02.796Z,11.11
2023-01-17T18:12:29.754Z,10.90
2023-01-17T18:14:56.640Z,10.94
2023-01-17T18:17:23.619Z,10.96
2023-01-17T18:19:51.103Z,11.03
2023-01-17T18:22:18.315Z,11.03
2023-01-17T18:24:46.365Z,10.86
2023-01-17T18:27:14.147Z,10.97
2023-01-17T18:29:43.426Z,10.97
2023-01-17T18:32:10.372Z,10.96
2023-01-17T18:34:41.513Z,11.01
2023-01-17T18:37:08.805Z,11.04
2023-01-17T18:39:35.736Z,11.13
2023-01-17T18:42:02.589Z,11.20
2023-01-17T18:44:30.266Z,11.22
2023-01-17T18:47:04.575Z,11.12
2023-01-17T18:49:33.778Z,11.18
2023-01-17T18:52:01.244Z,11.18
2023-01-17T18:54:28.356Z,11.18
2023-01-17T18:56:56.246Z,11.26
2023-01-17T18:59:23.570Z,11.23
2023-01-17T19:01:50.543Z,11.28
2023-01-17T19:04:17.902Z,11.30
2023-01-17T19:06:47.775Z,11.35
2023-01-17T19:09:15.653Z,11.39
2023-01-17T19:11:44.971Z,11.38
2023-01-17T19:14:12.983Z,11.35
2023-01-17T19:16:41.456Z,11.37
2023-01-17T19:19:11.164Z,11.32
2023-01-17T19:21:38.444Z,11.28
2023-01-17T19:24:05.581Z,11.34
2023-01-17T19:26:33.289Z,11.37
2023-01-17T19:29:00.467Z,11.33
2023-01-17T19:31:29.495Z,11.31
2023-01-17T19:33:59.197Z,11.32
2023-01-17T19:36:35.665Z,11.36
2023-01-17T19:39:06.343Z,11.29
2023-01-17T19:41:35.631Z,11.24
2023-01-17T19:44:09.939Z,11.20
2023-01-17T19:46:37.578Z,11.23
2023-01-17T19:49:07.656Z,11.22
2023-01-17T19:51:35.954Z,11.18
2023-01-17T19:54:04.221Z,11.21
2023-01-17T19:56:31.639Z,11.19
2023-01-17T19:59:01.409Z,11.17
2023-01-17T20:01:31.676Z,11.19
2023-01-17T20:03:59.486Z,11.20
2023-01-17T20:06:29.278Z,11.22
2023-01-17T20:08:59.264Z,11.20
2023-01-17T20:11:27.459Z,11.21
2023-01-17T20:13:56.822Z,11.20
2023-01-17T20:16:25.465Z,11.19
2023-01-17T20:18:52.913Z,11.16
2023-01-17T20:21:24.684Z,11.20
2023-01-17T20:23:54.452Z,11.21
2023-01-17T20:26:31.259Z,11.27
2023-01-17T20:28:58.149Z,11.28
2023-01-17T20:31:25.993Z,11.30
2023-01-17T20:33:55.145Z,11.31
2023-01-17T20:36:24.251Z,11.32
2023-01-17T20:38:51.425Z,11.27
2023-01-17T20:41:20.210Z,11.32
2023-01-17T20:43:53.800Z,11.16
2023-01-17T20:46:23.194Z,11.16
2023-01-17T20:48:53.044Z,11.16
2023-01-17T20:51:24.746Z,11.20
2023-01-17T20:53:56.047Z,11.27
2023-01-17T20:56:23.798Z,11.28
2023-01-17T20:58:54.471Z,11.22
2023-01-17T21:01:22.760Z,11.20
2023-01-17T21:03:51.774Z,11.24
2023-01-17T21:06:22.627Z,11.22
2023-01-17T21:08:50.431Z,11.20
2023-01-17T21:11:19.847Z,11.21
2023-01-17T21:13:48.855Z,11.26
2023-01-17T21:16:16.975Z,11.29
2023-01-17T21:18:48.020Z,11.35
2023-01-17T21:21:22.186Z,11.37
2023-01-17T21:23:50.877Z,11.33
2023-01-17T21:26:19.134Z,11.33
2023-01-17T21:28:47.566Z,11.32
2023-01-17T21:31:26.433Z,11.39
2023-01-17T21:33:59.128Z,11.41
2023-01-17T21:36:35.593Z,11.40
2023-01-17T21:39:06.681Z,11.33
2023-01-17T21:41:36.847Z,11.42
2023-01-17T21:44:13.105Z,11.36
2023-01-17T21:46:41.112Z,11.30
2023-01-17T21:49:12.945Z,11.44
2023-01-17T21:51:54.147Z,11.55
2023-01-17T21:54:45.128Z,11.59
2023-01-17T21:57:37.851Z,11.77
2023-01-17T22:00:09.344Z,11.90
2023-01-17T22:02:40.034Z,11.95
2023-01-17T22:05:08.855Z,11.99
2023-01-17T22:07:36.178Z,12.03
2023-01-17T22:10:03.437Z,12.04
2023-01-17T22:12:30.263Z,12.07
2023-01-17T22:14:57.750Z,12.05
2023-01-17T22:17:24.578Z,12.14
2023-01-17T22:19:51.681Z,12.19
2023-01-17T22:22:18.680Z,12.32
2023-01-17T22:24:45.911Z,12.29
2023-01-17T22:27:15.186Z,12.24
2023-01-17T22:29:46.009Z,12.21
2023-01-17T22:32:13.178Z,12.17
2023-01-17T22:34:39.979Z,12.14
2023-01-17T22:37:10.440Z,12.20
2023-01-17T22:39:38.752Z,12.18
2023-01-17T22:42:06.427Z,12.19
2023-01-17T22:44:35.265Z,12.15
2023-01-17T22:47:03.318Z,12.12
2023-01-17T22:49:30.135Z,12.11
2023-01-17T22:51:57.599Z,12.09
2023-01-17T22:54:24.519Z,12.22
2023-01-17T22:56:51.586Z,12.24
2023-01-17T22:59:18.704Z,12.18
2023-01-17T23:01:49.813Z,12.22
2023-01-17T23:04:17.339Z,12.24
2023-01-17T23:06:44.807Z,12.26
2023-01-17T23:09:14.757Z,12.29
2023-01-17T23:11:52.494Z,12.23
2023-01-17T23:14:22.823Z,12.29
2023-01-17T23:17:28.807Z,12.34
2023-01-17T23:19:55.907Z,12.34
2023-01-17T23:22:27.656Z,12.42
2023-01-17T23:25:01.278Z,12.40
2023-01-17T23:27:51.032Z,12.36
2023-01-17T23:30:25.295Z,12.33
2023-01-17T23:32:55.500Z,12.31
2023-01-17T23:35:25.762Z,12.31
2023-01-17T23:38:11.288Z,12.25
2023-01-17T23:40:39.719Z,12.26
2023-01-17T23:43:24.129Z,12.25
2023-01-17T23:45:53.446Z,12.26
2023-01-17T23:48:21.322Z,12.30
2023-01-17T23:50:48.828Z,12.38
2023-01-17T23:53:23.950Z,12.48
2023-01-17T23:55:54.328Z,12.52
2023-01-17T23:58:26.198Z,12.47
